createdAt,value
2018-02-19T00:00:58.329Z,95.30
2018-02-19T00:03:25.841Z,95.50
2018-02-19T00:05:53.387Z,95.10
2018-02-19T00:08:21.664Z,94.30
2018-02-19T00:10:50.065Z,94.60
2018-02-19T00:13:17.594Z,94.60
2018-02-19T00:15:45.121Z,94.80
2018-02-19T00:18:12.783Z,94.80
2018-02-19T00:20:40.296Z,95.40
2018-02-19T00:23:07.823Z,95.50
2018-02-19T00:25:35.463Z,95.30
2018-02-19T00:28:02.980Z,95.30
2018-02-19T00:30:30.500Z,94.90
2018-02-19T00:32:58.054Z,95.50
2018-02-19T00:35:25.586Z,95.50
2018-02-19T00:37:53.890Z,95.70
2018-02-19T00:40:21.422Z,95.70
2018-02-19T00:42:48.946Z,96.00
2018-02-19T00:45:16.459Z,95.60
2018-02-19T00:47:44.765Z,95.40
2018-02-19T00:50:12.288Z,95.40
2018-02-19T00:52:39.842Z,94.60
2018-02-19T00:55:07.396Z,95.30
2018-02-19T00:57:35.691Z,94.80
2018-02-19T01:00:03.219Z,94.80
2018-02-19T01:02:30.766Z,94.30
2018-02-19T01:04:58.270Z,94.90
2018-02-19T01:07:25.800Z,95.50
2018-02-19T01:09:53.460Z,95.60
2018-02-19T01:12:20.968Z,95.80
2018-02-19T01:14:48.480Z,95.70
2018-02-19T01:17:16.013Z,95.30
2018-02-19T01:19:44.289Z,95.80
2018-02-19T01:22:11.813Z,95.50
2018-02-19T01:24:39.357Z,95.40
2018-02-19T01:27:06.865Z,95.80
2018-02-19T01:29:34.378Z,96.50
2018-02-19T01:32:01.913Z,96.50
2018-02-19T01:34:30.189Z,96.20
2018-02-19T01:36:58.469Z,96.70
2018-02-19T01:39:26.933Z,96.40
2018-02-19T01:41:54.485Z,96.30
2018-02-19T01:44:22.002Z,96.00
2018-02-19T01:46:49.533Z,95.40
2018-02-19T01:49:17.040Z,96.10
2018-02-19T01:51:44.557Z,95.80
2018-02-19T01:54:12.086Z,95.70
2018-02-19T01:56:39.590Z,96.10
2018-02-19T01:59:07.101Z,95.80
2018-02-19T02:01:34.628Z,95.10
2018-02-19T02:04:02.921Z,95.30
2018-02-19T02:06:30.452Z,95.30
2018-02-19T02:08:57.980Z,95.70
2018-02-19T02:11:25.493Z,95.90
2018-02-19T02:13:53.762Z,96.20
2018-02-19T02:16:21.304Z,95.80
2018-02-19T02:18:48.839Z,95.30
2018-02-19T02:21:16.382Z,95.00
2018-02-19T02:23:43.939Z,95.20
2018-02-19T02:26:12.216Z,94.50
2018-02-19T02:28:40.818Z,94.60
2018-02-19T02:31:08.382Z,94.60
2018-02-19T02:33:35.908Z,94.70
2018-02-19T02:36:03.417Z,94.30
2018-02-19T02:38:31.063Z,94.40
2018-02-19T02:40:59.364Z,94.10
2018-02-19T02:43:26.903Z,94.10
2018-02-19T02:45:55.203Z,94.20
2018-02-19T02:48:22.749Z,94.20
2018-02-19T02:50:51.033Z,94.80
2018-02-19T02:53:19.331Z,94.20
2018-02-19T02:55:46.862Z,94.20
2018-02-19T02:58:15.151Z,94.40
2018-02-19T03:00:43.448Z,95.10
2018-02-19T03:03:10.961Z,95.10
2018-02-19T03:05:38.494Z,94.60
2018-02-19T03:08:06.022Z,94.50
2018-02-19T03:10:34.301Z,94.80
2018-02-19T03:13:02.599Z,94.60
2018-02-19T03:15:30.120Z,94.60
2018-02-19T03:17:57.629Z,94.60
2018-02-19T03:20:25.174Z,94.40
2018-02-19T03:22:53.444Z,94.30
2018-02-19T03:25:20.976Z,94.20
2018-02-19T03:27:49.285Z,94.30
2018-02-19T03:30:16.801Z,94.30
2018-02-19T03:32:44.308Z,94.80
2018-02-19T03:35:11.843Z,94.50
2018-02-19T03:37:39.356Z,94.20
2018-02-19T03:40:07.629Z,94.80
2018-02-19T03:42:35.929Z,94.30
2018-02-19T03:45:03.438Z,94.30
2018-02-19T03:47:30.950Z,94.50
2018-02-19T03:49:58.499Z,94.40
2018-02-19T03:52:26.781Z,94.40
2018-02-19T03:54:55.072Z,94.60
2018-02-19T03:57:22.594Z,94.60
2018-02-19T03:59:50.099Z,94.70
2018-02-19T04:02:17.658Z,94.20
2018-02-19T04:04:45.179Z,93.50
2018-02-19T04:07:12.687Z,93.70
2018-02-19T04:09:40.977Z,94.30
2018-02-19T04:12:08.484Z,94.30
2018-02-19T04:14:35.996Z,93.80
2018-02-19T04:17:03.546Z,93.70
2018-02-19T04:19:31.834Z,94.10
2018-02-19T04:21:59.351Z,94.10
2018-02-19T04:24:26.989Z,94.10
2018-02-19T04:26:54.493Z,94.20
2018-02-19T04:29:22.001Z,94.30
2018-02-19T04:31:49.545Z,94.00
2018-02-19T04:34:17.814Z,93.80
2018-02-19T04:36:45.327Z,93.80
2018-02-19T04:39:12.864Z,94.40
2018-02-19T04:41:40.372Z,94.50
2018-02-19T04:44:22.808Z,94.40
2018-02-19T04:46:50.809Z,94.80
2018-02-19T04:49:18.320Z,94.40
2018-02-19T04:51:45.861Z,94.00
2018-02-19T04:54:13.376Z,93.90
2018-02-19T04:56:41.658Z,94.10
2018-02-19T05:01:43.790Z,94.40
2018-02-19T05:04:11.344Z,94.40
2018-02-19T05:06:38.866Z,94.10
2018-02-19T05:09:07.145Z,94.30
2018-02-19T05:11:34.689Z,94.30
2018-02-19T05:14:02.203Z,94.40
2018-02-19T05:16:29.727Z,94.60
2018-02-19T05:18:57.272Z,94.10
2018-02-19T05:21:24.801Z,93.90
2018-02-19T05:23:52.304Z,94.10
2018-02-19T05:26:19.847Z,94.80
2018-02-19T05:28:47.371Z,94.70
2018-02-19T05:31:14.891Z,94.60
2018-02-19T05:33:42.519Z,94.90
2018-02-19T05:36:10.047Z,93.80
2018-02-19T05:38:38.334Z,94.60
2018-02-19T05:41:06.642Z,94.60
2018-02-19T05:43:34.169Z,94.60
2018-02-19T05:46:02.459Z,95.00
2018-02-19T05:48:30.775Z,95.00
2018-02-19T05:50:58.296Z,95.00
2018-02-19T05:53:26.573Z,95.40
2018-02-19T05:55:54.120Z,95.40
2018-02-19T05:58:21.688Z,95.30
2018-02-19T06:00:49.206Z,94.90
2018-02-19T06:03:16.771Z,94.50
2018-02-19T06:05:44.350Z,94.80
2018-02-19T06:08:11.867Z,94.70
2018-02-19T06:10:40.177Z,94.40
2018-02-19T06:13:08.464Z,93.70
2018-02-19T06:15:35.985Z,93.70
2018-02-19T06:18:04.290Z,94.50
2018-02-19T06:20:31.812Z,94.50
2018-02-19T06:22:59.323Z,94.10
2018-02-19T06:25:26.876Z,94.20
2018-02-19T06:27:54.391Z,94.20
2018-02-19T06:30:21.914Z,93.90
2018-02-19T06:32:49.438Z,93.40
2018-02-19T06:35:16.957Z,94.20
2018-02-19T06:37:44.477Z,93.90
2018-02-19T06:40:12.783Z,93.70
2018-02-19T06:42:40.288Z,93.70
2018-02-19T06:45:07.806Z,93.40
2018-02-19T06:47:35.368Z,93.40
2018-02-19T06:50:02.891Z,94.20
2018-02-19T06:52:30.405Z,93.30
2018-02-19T06:54:57.984Z,93.40
2018-02-19T06:57:25.510Z,93.20
2018-02-19T06:59:53.802Z,92.90
2018-02-19T07:02:21.343Z,92.90
2018-02-19T07:04:49.650Z,93.30
2018-02-19T07:07:17.188Z,93.20
2018-02-19T07:09:45.523Z,93.50
2018-02-19T07:12:13.061Z,93.50
2018-02-19T07:14:40.567Z,93.70
2018-02-19T07:17:08.125Z,93.10
2018-02-19T07:19:35.674Z,93.20
2018-02-19T07:22:03.188Z,93.40
2018-02-19T07:24:31.513Z,93.20
2018-02-19T07:26:59.038Z,93.20
2018-02-19T07:29:27.390Z,92.60
2018-02-19T07:31:54.955Z,92.60
2018-02-19T07:34:22.479Z,92.90
2018-02-19T07:36:50.047Z,92.90
2018-02-19T07:39:17.612Z,92.30
2018-02-19T07:41:45.157Z,91.90
2018-02-19T07:44:12.747Z,93.40
2018-02-19T07:46:41.063Z,91.90
2018-02-19T07:49:08.586Z,91.90
2018-02-19T07:51:36.142Z,91.10
2018-02-19T07:54:03.705Z,90.90
2018-02-19T07:56:31.229Z,90.60
2018-02-19T07:58:59.538Z,90.00
2018-02-19T08:01:27.117Z,90.00
2018-02-19T08:03:54.638Z,90.20
2018-02-19T08:06:22.935Z,87.90
2018-02-19T08:08:50.515Z,87.90
2018-02-19T08:11:18.070Z,88.20
2018-02-19T08:13:45.578Z,88.30
2018-02-19T08:16:13.131Z,87.40
2018-02-19T08:18:40.659Z,87.80
2018-02-19T08:21:08.205Z,87.20
2018-02-19T08:23:36.511Z,87.30
2018-02-19T08:26:04.067Z,87.30
2018-02-19T08:28:31.627Z,87.10
2018-02-19T08:30:59.218Z,86.70
2018-02-19T08:33:26.781Z,87.20
2018-02-19T08:35:54.302Z,86.90
2018-02-19T08:38:22.602Z,83.90
2018-02-19T08:40:50.183Z,83.90
2018-02-19T08:43:17.730Z,84.50
2018-02-19T08:45:45.283Z,83.80
2018-02-19T08:48:13.593Z,84.80
2018-02-19T08:50:41.174Z,84.80
2018-02-19T08:53:08.700Z,84.00
2018-02-19T08:55:36.235Z,84.70
2018-02-19T08:58:03.763Z,83.90
2018-02-19T09:00:31.314Z,82.60
2018-02-19T09:02:58.825Z,84.40
2018-02-19T09:05:26.369Z,82.90
2018-02-19T09:07:53.894Z,83.10
2018-02-19T09:10:21.434Z,83.00
2018-02-19T09:12:49.023Z,82.50
2018-02-19T09:15:16.595Z,83.70
2018-02-19T09:17:44.131Z,84.20
2018-02-19T09:20:11.671Z,83.30
2018-02-19T09:22:39.205Z,83.60
2018-02-19T09:25:06.720Z,84.30
2018-02-19T09:27:34.235Z,85.60
2018-02-19T09:30:01.799Z,85.90
2018-02-19T09:32:29.316Z,84.70
2018-02-19T09:34:56.834Z,83.70
2018-02-19T09:37:24.461Z,85.20
2018-02-19T09:39:51.992Z,85.00
2018-02-19T09:42:20.298Z,83.40
2018-02-19T09:44:47.824Z,83.40
2018-02-19T09:47:15.347Z,83.10
2018-02-19T09:49:42.871Z,84.80
2018-02-19T09:52:11.260Z,84.30
2018-02-19T09:54:38.789Z,84.30
2018-02-19T09:57:06.340Z,83.50
2018-02-19T09:59:33.841Z,85.60
2018-02-19T10:02:02.120Z,83.60
2018-02-19T10:04:30.405Z,83.50
2018-02-19T10:06:58.709Z,83.60
2018-02-19T10:09:26.229Z,83.50
2018-02-19T10:11:53.743Z,81.10
2018-02-19T10:16:55.072Z,82.10
2018-02-19T10:19:23.472Z,80.30
2018-02-19T10:21:50.969Z,80.30
2018-02-19T10:24:18.515Z,80.60
2018-02-19T10:26:46.036Z,81.40
2018-02-19T10:29:13.550Z,81.90
2018-02-19T10:31:41.054Z,79.50
2018-02-19T10:34:08.594Z,79.80
2018-02-19T10:36:36.092Z,80.90
2018-02-19T10:39:04.378Z,77.70
2018-02-19T10:41:32.683Z,78.60
2018-02-19T10:44:00.196Z,78.60
2018-02-19T10:46:27.712Z,79.60
2018-02-19T10:48:55.306Z,78.10
2018-02-19T10:51:22.813Z,77.80
2018-02-19T10:53:51.090Z,76.70
2018-02-19T10:56:19.502Z,76.60
2018-02-19T10:58:47.017Z,76.60
2018-02-19T11:01:14.515Z,77.30
2018-02-19T11:03:42.048Z,76.90
2018-02-19T11:06:09.566Z,78.00
2018-02-19T11:08:37.065Z,77.20
2018-02-19T11:11:04.626Z,77.90
2018-02-19T11:13:32.145Z,77.50
2018-02-19T11:15:59.682Z,76.80
2018-02-19T11:18:28.006Z,77.20
2018-02-19T11:20:55.529Z,77.10
2018-02-19T11:23:23.050Z,78.10
2018-02-19T11:25:50.590Z,77.70
2018-02-19T11:28:18.104Z,77.70
2018-02-19T11:30:45.647Z,76.90
2018-02-19T11:33:13.193Z,77.60
2018-02-19T11:35:40.707Z,78.60
2018-02-19T11:38:08.981Z,76.70
2018-02-19T11:43:11.341Z,77.00
2018-02-19T11:45:38.874Z,77.50
2018-02-19T11:48:06.381Z,77.80
2018-02-19T11:50:33.902Z,76.40
2018-02-19T11:53:01.458Z,75.40
2018-02-19T11:55:28.992Z,76.20
2018-02-19T11:57:57.269Z,74.80
2018-02-19T12:00:25.583Z,73.70
2018-02-19T12:02:53.088Z,74.40
2018-02-19T12:05:20.592Z,74.20
2018-02-19T12:07:48.120Z,74.80
2018-02-19T12:10:15.620Z,73.60
2018-02-19T12:12:43.132Z,72.90
2018-02-19T12:15:10.659Z,72.70
2018-02-19T12:17:38.168Z,73.50
2018-02-19T12:20:05.679Z,74.00
2018-02-19T12:22:33.201Z,73.00
2018-02-19T12:25:01.518Z,71.60
2018-02-19T12:27:29.033Z,71.50
2018-02-19T12:29:56.665Z,70.90
2018-02-19T12:32:24.211Z,70.80
2018-02-19T12:34:51.730Z,71.40
2018-02-19T12:37:19.271Z,69.30
2018-02-19T12:39:46.785Z,70.30
2018-02-19T12:42:14.327Z,68.70
2018-02-19T12:44:41.869Z,70.40
2018-02-19T12:47:09.381Z,70.80
2018-02-19T12:49:37.685Z,70.00
2018-02-19T12:52:05.227Z,70.00
2018-02-19T12:54:32.759Z,69.40
2018-02-19T12:57:00.279Z,70.60
2018-02-19T12:59:27.838Z,70.50
2018-02-19T13:01:55.344Z,68.80
2018-02-19T13:04:22.869Z,69.00
2018-02-19T13:06:50.397Z,66.40
2018-02-19T13:09:18.692Z,67.70
2018-02-19T13:11:47.004Z,67.20
2018-02-19T13:14:14.553Z,67.20
2018-02-19T13:16:42.091Z,66.30
2018-02-19T13:19:10.409Z,67.90
2018-02-19T13:21:37.940Z,67.90
2018-02-19T13:24:05.488Z,69.00
2018-02-19T13:26:33.787Z,68.40
2018-02-19T13:29:01.338Z,68.00
2018-02-19T13:31:28.889Z,69.80
2018-02-19T13:33:56.563Z,68.00
2018-02-19T13:36:24.075Z,69.10
2018-02-19T13:38:51.598Z,67.60
2018-02-19T13:41:19.907Z,71.60
2018-02-19T13:43:47.426Z,71.60
2018-02-19T13:46:14.974Z,69.80
2018-02-19T13:48:42.528Z,70.50
2018-02-19T13:51:10.039Z,69.10
2018-02-19T13:53:38.338Z,69.20
2018-02-19T13:56:05.924Z,69.20
2018-02-19T13:58:33.470Z,69.80
2018-02-19T14:01:01.009Z,69.40
2018-02-19T14:03:28.539Z,70.80
2018-02-19T14:05:56.078Z,71.40
2018-02-19T14:08:23.585Z,72.30
2018-02-19T14:10:51.221Z,73.40
2018-02-19T14:13:18.734Z,73.40
2018-02-19T14:15:47.013Z,73.90
2018-02-19T14:18:15.321Z,74.00
2018-02-19T14:20:42.836Z,73.90
2018-02-19T14:23:10.448Z,74.10
2018-02-19T14:25:38.166Z,75.50
2018-02-19T14:28:05.689Z,74.80
2018-02-19T14:30:33.212Z,75.10
2018-02-19T14:33:01.590Z,76.60
2018-02-19T14:35:29.891Z,77.00
2018-02-19T14:37:57.502Z,77.20
2018-02-19T14:40:25.142Z,78.50
2018-02-19T14:42:52.686Z,78.90
2018-02-19T14:45:20.944Z,77.60
2018-02-19T14:47:49.256Z,77.70
2018-02-19T14:50:16.789Z,77.60
2018-02-19T14:52:45.138Z,78.80
2018-02-19T14:55:12.683Z,78.80
2018-02-19T14:57:40.201Z,77.30
2018-02-19T15:00:08.498Z,79.10
2018-02-19T15:02:36.284Z,79.00
2018-02-19T15:05:03.799Z,78.60
2018-02-19T15:07:31.314Z,80.10
2018-02-19T15:09:58.856Z,80.90
2018-02-19T15:12:26.414Z,79.40
2018-02-19T15:14:53.958Z,80.00
2018-02-19T15:17:22.282Z,80.30
2018-02-19T15:19:49.821Z,80.30
2018-02-19T15:22:17.358Z,80.40
2018-02-19T15:24:45.705Z,81.80
2018-02-19T15:27:13.238Z,81.40
2018-02-19T15:29:40.825Z,81.70
2018-02-19T15:32:08.443Z,82.00
2018-02-19T15:34:36.910Z,82.20
2018-02-19T15:37:04.477Z,82.20
2018-02-19T15:39:32.134Z,82.90
2018-02-19T15:41:59.680Z,82.70
2018-02-19T15:44:27.234Z,82.60
2018-02-19T15:46:54.838Z,82.10
2018-02-19T15:49:22.440Z,83.10
2018-02-19T15:51:49.981Z,83.30
2018-02-19T15:54:18.406Z,83.90
2018-02-19T15:56:45.967Z,83.80
2018-02-19T15:59:13.489Z,83.60
2018-02-19T16:01:41.815Z,84.20
2018-02-19T16:04:09.342Z,84.10
2018-02-19T16:06:36.872Z,84.80
2018-02-19T16:09:04.431Z,84.80
2018-02-19T16:11:31.993Z,84.50
2018-02-19T16:13:59.546Z,86.60
2018-02-19T16:16:27.218Z,86.70
2018-02-19T16:18:54.783Z,86.50
2018-02-19T16:21:22.366Z,86.80
2018-02-19T16:23:49.960Z,87.20
2018-02-19T16:26:18.249Z,86.90
2018-02-19T16:28:45.809Z,86.90
2018-02-19T16:31:13.396Z,87.10
2018-02-19T16:33:40.977Z,88.00
2018-02-19T16:36:08.514Z,88.60
2018-02-19T16:38:36.086Z,88.10
2018-02-19T16:41:03.637Z,88.30
2018-02-19T16:43:31.251Z,88.10
2018-02-19T16:45:58.771Z,88.00
2018-02-19T16:48:26.297Z,89.40
2018-02-19T16:50:54.660Z,89.10
2018-02-19T16:53:22.214Z,89.00
2018-02-19T16:55:49.742Z,90.20
2018-02-19T16:58:17.301Z,89.50
2018-02-19T17:00:44.952Z,91.30
2018-02-19T17:03:13.400Z,89.80
2018-02-19T17:05:41.722Z,89.70
2018-02-19T17:08:10.010Z,90.00
2018-02-19T17:10:37.540Z,90.00
2018-02-19T17:13:05.127Z,90.10
2018-02-19T17:15:33.405Z,90.20
2018-02-19T17:18:01.754Z,90.50
2018-02-19T17:20:29.264Z,90.40
2018-02-19T17:22:56.888Z,90.40
2018-02-19T17:25:24.490Z,90.30
2018-02-19T17:27:52.160Z,90.50
2018-02-19T17:30:19.721Z,90.80
2018-02-19T17:32:47.273Z,91.20
2018-02-19T17:35:16.380Z,91.80
2018-02-19T17:37:44.676Z,92.00
2018-02-19T17:40:12.214Z,92.00
2018-02-19T17:42:40.685Z,92.10
2018-02-19T17:45:09.077Z,92.90
2018-02-19T17:47:37.442Z,92.90
2018-02-19T17:50:04.986Z,92.90
2018-02-19T17:52:32.553Z,93.10
2018-02-19T17:55:00.128Z,93.40
2018-02-19T17:57:27.688Z,93.70
2018-02-19T17:59:55.367Z,94.10
2018-02-19T18:02:23.007Z,94.00
2018-02-19T18:04:50.541Z,94.30
2018-02-19T18:07:18.126Z,94.40
2018-02-19T18:09:45.674Z,94.60
2018-02-19T18:12:13.253Z,94.80
2018-02-19T18:14:40.812Z,95.10
2018-02-19T18:17:08.443Z,95.20
2018-02-19T18:19:36.828Z,95.50
2018-02-19T18:22:04.402Z,95.50
2018-02-19T18:24:32.012Z,95.70
2018-02-19T18:26:59.553Z,95.80
2018-02-19T18:29:27.132Z,95.70
2018-02-19T18:31:54.684Z,95.90
2018-02-19T18:34:22.254Z,96.10
2018-02-19T18:36:49.836Z,96.00
2018-02-19T18:39:17.418Z,95.90
2018-02-19T18:41:44.978Z,96.10
2018-02-19T18:44:12.545Z,96.40
2018-02-19T18:46:40.077Z,96.30
2018-02-19T18:49:07.629Z,96.50
2018-02-19T18:51:35.309Z,96.50
2018-02-19T18:54:02.883Z,96.50
2018-02-19T18:56:30.487Z,96.80
2018-02-19T18:58:58.066Z,96.60
2018-02-19T19:01:25.606Z,96.80
2018-02-19T19:03:53.259Z,97.00
2018-02-19T19:06:20.902Z,97.00
2018-02-19T19:09:00.463Z,97.10
2018-02-19T19:11:28.954Z,97.20
2018-02-19T19:13:56.487Z,97.20
2018-02-19T19:16:24.068Z,97.20
2018-02-19T19:18:51.637Z,96.80
2018-02-19T19:21:19.232Z,96.90
2018-02-19T19:23:47.567Z,97.10
2018-02-19T19:26:15.157Z,97.10
2018-02-19T19:28:43.317Z,96.80
2018-02-19T19:31:10.861Z,96.90
2018-02-19T19:33:38.445Z,97.40
2018-02-19T19:36:05.977Z,97.00
2018-02-19T19:38:33.556Z,96.90
2018-02-19T19:41:01.199Z,97.00
2018-02-19T19:43:28.764Z,96.70
2018-02-19T19:45:56.396Z,97.00
2018-02-19T19:48:24.748Z,97.10
2018-02-19T19:50:53.076Z,97.00
2018-02-19T19:53:21.378Z,96.90
2018-02-19T19:55:48.973Z,96.90
2018-02-19T19:58:16.502Z,96.90
2018-02-19T20:00:44.207Z,97.00
2018-02-19T20:03:11.805Z,96.90
2018-02-19T20:05:40.138Z,96.90
2018-02-19T20:08:07.677Z,96.90
2018-02-19T20:10:35.222Z,96.90
2018-02-19T20:13:03.515Z,97.00
2018-02-19T20:15:31.052Z,97.00
2018-02-19T20:17:58.691Z,97.00
2018-02-19T20:20:26.233Z,97.30
2018-02-19T20:22:53.763Z,97.10
2018-02-19T20:25:21.333Z,97.60
2018-02-19T20:27:48.841Z,97.10
2018-02-19T20:30:16.472Z,97.20
2018-02-19T20:32:44.032Z,97.00
2018-02-19T20:35:11.677Z,97.00
2018-02-19T20:37:39.235Z,97.00
2018-02-19T20:40:06.808Z,97.20
2018-02-19T20:42:35.116Z,97.30
2018-02-19T20:45:02.638Z,97.30
2018-02-19T20:47:30.266Z,97.10
2018-02-19T20:49:57.795Z,97.20
2018-02-19T20:52:25.413Z,97.60
2018-02-19T20:54:52.998Z,97.30
2018-02-19T20:57:21.476Z,97.80
2018-02-19T20:59:49.081Z,97.70
2018-02-19T21:02:16.703Z,97.50
2018-02-19T21:04:44.348Z,97.50
2018-02-19T21:07:11.937Z,97.70
2018-02-19T21:09:39.482Z,97.70
2018-02-19T21:12:07.128Z,97.60
2018-02-19T21:14:34.665Z,97.70
2018-02-19T21:17:02.244Z,98.00
2018-02-19T21:19:29.776Z,97.60
2018-02-19T21:21:58.089Z,98.30
2018-02-19T21:24:25.664Z,98.30
2018-02-19T21:26:53.193Z,98.30
2018-02-19T21:29:21.568Z,97.80
2018-02-19T21:31:49.222Z,97.80
2018-02-19T21:34:16.837Z,98.10
2018-02-19T21:36:44.364Z,97.90
2018-02-19T21:39:12.711Z,98.10
2018-02-19T21:41:40.276Z,98.00
2018-02-19T21:44:07.818Z,97.90
2018-02-19T21:46:35.381Z,97.70
2018-02-19T21:49:03.040Z,97.70
2018-02-19T21:51:30.642Z,97.70
2018-02-19T21:53:58.311Z,97.80
2018-02-19T21:56:25.898Z,97.50
2018-02-19T21:58:53.437Z,97.80
2018-02-19T22:01:21.062Z,97.50
2018-02-19T22:03:48.584Z,97.70
2018-02-19T22:06:16.871Z,97.30
2018-02-19T22:08:45.205Z,97.30
2018-02-19T22:11:12.784Z,97.30
2018-02-19T22:13:40.336Z,97.30
2018-02-19T22:16:07.906Z,97.30
2018-02-19T22:18:35.438Z,97.50
2018-02-19T22:21:02.975Z,97.30
2018-02-19T22:23:30.559Z,97.70
2018-02-19T22:25:58.092Z,97.50
2018-02-19T22:28:25.704Z,97.40
2018-02-19T22:30:53.992Z,97.80
2018-02-19T22:33:21.540Z,97.80
2018-02-19T22:35:49.101Z,97.70
2018-02-19T22:38:16.650Z,98.00
2018-02-19T22:40:45.060Z,97.90
2018-02-19T22:43:12.589Z,97.80
2018-02-19T22:45:40.166Z,97.90
2018-02-19T22:48:07.737Z,97.70
2018-02-19T22:50:35.367Z,97.50
2018-02-19T22:53:02.920Z,97.60
2018-02-19T22:55:30.447Z,97.50
2018-02-19T22:57:57.971Z,97.30
2018-02-19T23:00:25.568Z,97.60
2018-02-19T23:02:53.173Z,97.70
2018-02-19T23:05:20.702Z,97.90
2018-02-19T23:07:48.300Z,97.70
2018-02-19T23:10:15.843Z,98.00
2018-02-19T23:12:43.358Z,97.80
2018-02-19T23:15:11.764Z,97.60
2018-02-19T23:17:39.276Z,97.60
2018-02-19T23:20:06.852Z,97.50
2018-02-19T23:22:34.397Z,97.30
2018-02-19T23:25:01.920Z,97.80
2018-02-19T23:27:29.436Z,97.70
2018-02-19T23:29:56.994Z,97.40
2018-02-19T23:32:24.523Z,97.20
2018-02-19T23:34:52.036Z,97.30
2018-02-19T23:37:20.368Z,97.20
2018-02-19T23:39:47.907Z,97.20
2018-02-19T23:42:15.454Z,97.30
2018-02-19T23:44:42.985Z,97.30
2018-02-19T23:47:10.498Z,97.50
2018-02-19T23:49:38.027Z,97.50
2018-02-19T23:52:05.662Z,97.70
2018-02-19T23:54:34.997Z,97.70
2018-02-19T23:57:03.308Z,98.30
2018-02-19T23:59:30.821Z,98.10
